createdAt,value
2018-01-23T00:00:59.241Z,1010.25
2018-01-23T00:01:59.175Z,1010.27
2018-01-23T00:02:59.119Z,1010.35
2018-01-23T00:03:59.054Z,1010.35
2018-01-23T00:04:58.979Z,1010.34
2018-01-23T00:05:58.913Z,1010.38
2018-01-23T00:06:58.848Z,1010.41
2018-01-23T00:07:58.782Z,1010.45
2018-01-23T00:08:58.717Z,1010.46
2018-01-23T00:09:58.651Z,1010.51
2018-01-23T00:10:58.586Z,1010.56
2018-01-23T00:11:58.519Z,1010.57
2018-01-23T00:12:58.453Z,1010.63
2018-01-23T00:13:58.388Z,1010.62
2018-01-23T00:14:58.323Z,1010.66
2018-01-23T00:15:58.257Z,1010.65
2018-01-23T00:16:58.191Z,1010.69
2018-01-23T00:17:58.125Z,1010.73
2018-01-23T00:18:58.060Z,1010.76
2018-01-23T00:19:57.995Z,1010.77
2018-01-23T00:20:57.930Z,1010.81
2018-01-23T00:21:57.863Z,1010.80
2018-01-23T00:22:57.797Z,1010.84
2018-01-23T00:23:57.731Z,1010.82
2018-01-23T00:24:57.666Z,1010.83
2018-01-23T00:25:57.600Z,1010.88
2018-01-23T00:26:57.536Z,1010.84
2018-01-23T00:27:57.469Z,1010.84
2018-01-23T00:28:57.404Z,1010.87
2018-01-23T00:29:57.338Z,1010.91
2018-01-23T00:30:57.274Z,1010.91
2018-01-23T00:31:57.207Z,1010.93
2018-01-23T00:32:57.142Z,1010.93
2018-01-23T00:33:57.076Z,1011.06
2018-01-23T00:34:57.010Z,1011.04
2018-01-23T00:35:56.945Z,1011.07
2018-01-23T00:36:56.881Z,1011.05
2018-01-23T00:37:56.813Z,1011.05
2018-01-23T00:38:56.748Z,1011.06
2018-01-23T00:39:56.683Z,1011.08
2018-01-23T00:40:56.617Z,1011.14
2018-01-23T00:41:56.551Z,1011.18
2018-01-23T00:42:56.486Z,1011.18
2018-01-23T00:43:56.421Z,1011.14
2018-01-23T00:44:56.354Z,1011.16
2018-01-23T00:45:56.291Z,1011.14
2018-01-23T00:46:56.224Z,1011.12
2018-01-23T00:47:56.158Z,1011.12
2018-01-23T00:48:56.095Z,1011.08
2018-01-23T00:49:56.027Z,1011.07
2018-01-23T00:50:55.962Z,1011.08
2018-01-23T00:51:55.897Z,1011.12
2018-01-23T00:52:55.834Z,1011.08
2018-01-23T00:53:55.765Z,1011.10
2018-01-23T00:54:55.701Z,1011.08
2018-01-23T00:55:55.636Z,1011.06
2018-01-23T00:56:55.571Z,1011.06
2018-01-23T00:57:55.503Z,1011.00
2018-01-23T00:58:55.438Z,1011.01
2018-01-23T00:59:55.373Z,1011.02
2018-01-23T01:00:55.308Z,1011.08
2018-01-23T01:01:55.241Z,1011.09
2018-01-23T01:02:55.178Z,1011.10
2018-01-23T01:03:55.162Z,1011.15
2018-01-23T01:04:55.046Z,1011.19
2018-01-23T01:05:54.981Z,1011.20
2018-01-23T01:06:54.914Z,1011.21
2018-01-23T01:07:54.849Z,1011.26
2018-01-23T01:08:54.783Z,1011.29
2018-01-23T01:09:54.717Z,1011.36
2018-01-23T01:10:54.653Z,1011.41
2018-01-23T01:11:54.587Z,1011.43
2018-01-23T01:12:54.523Z,1011.47
2018-01-23T01:13:54.456Z,1011.51
2018-01-23T01:14:54.390Z,1011.53
2018-01-23T01:15:54.324Z,1011.51
2018-01-23T01:16:54.262Z,1011.47
2018-01-23T01:17:54.194Z,1011.47
2018-01-23T01:18:54.129Z,1011.50
2018-01-23T01:19:54.063Z,1011.52
2018-01-23T01:20:53.998Z,1011.51
2018-01-23T01:21:53.931Z,1011.55
2018-01-23T01:22:53.866Z,1011.57
2018-01-23T01:23:53.801Z,1011.60
2018-01-23T01:24:53.736Z,1011.67
2018-01-23T01:25:53.670Z,1011.69
2018-01-23T01:26:53.604Z,1011.65
2018-01-23T01:27:53.539Z,1011.66
2018-01-23T01:28:53.473Z,1011.70
2018-01-23T01:29:53.407Z,1011.71
2018-01-23T01:30:53.342Z,1011.75
2018-01-23T01:31:53.277Z,1011.79
2018-01-23T01:32:53.212Z,1011.79
2018-01-23T01:33:53.146Z,1011.82
2018-01-23T01:34:53.080Z,1011.84
2018-01-23T01:35:53.015Z,1011.91
2018-01-23T01:36:52.950Z,1011.88
2018-01-23T01:37:52.932Z,1011.86
2018-01-23T01:38:52.819Z,1011.90
2018-01-23T01:39:52.753Z,1011.87
2018-01-23T01:40:52.745Z,1011.88
2018-01-23T01:41:52.622Z,1011.90
2018-01-23T01:42:52.557Z,1011.89
2018-01-23T01:43:52.492Z,1011.94
2018-01-23T01:44:52.426Z,1011.92
2018-01-23T01:45:52.361Z,1011.92
2018-01-23T01:46:52.296Z,1011.90
2018-01-23T01:47:52.230Z,1011.90
2018-01-23T01:48:52.163Z,1011.92
2018-01-23T01:49:52.098Z,1011.93
2018-01-23T01:50:52.033Z,1011.94
2018-01-23T01:51:51.967Z,1011.92
2018-01-23T01:52:51.903Z,1011.94
2018-01-23T01:53:51.835Z,1011.98
2018-01-23T01:54:51.771Z,1011.98
2018-01-23T01:55:51.706Z,1011.97
2018-01-23T01:56:51.641Z,1011.95
2018-01-23T01:57:51.575Z,1011.99
2018-01-23T01:58:51.509Z,1011.96
2018-01-23T01:59:51.443Z,1011.99
2018-01-23T02:00:51.379Z,1011.97
2018-01-23T02:01:51.312Z,1012.02
2018-01-23T02:02:51.247Z,1011.98
2018-01-23T02:03:51.181Z,1012.00
2018-01-23T02:04:51.119Z,1012.04
2018-01-23T02:05:51.050Z,1012.08
2018-01-23T02:06:50.985Z,1012.11
2018-01-23T02:07:50.922Z,1012.13
2018-01-23T02:08:50.855Z,1012.16
2018-01-23T02:09:50.788Z,1012.17
2018-01-23T02:10:50.724Z,1012.18
2018-01-23T02:11:50.659Z,1012.27
2018-01-23T02:12:50.592Z,1012.32
2018-01-23T02:13:50.526Z,1012.28
2018-01-23T02:14:50.461Z,1012.33
2018-01-23T02:15:50.396Z,1012.30
2018-01-23T02:16:50.331Z,1012.29
2018-01-23T02:17:50.265Z,1012.27
2018-01-23T02:18:50.199Z,1012.24
2018-01-23T02:19:50.134Z,1012.26
2018-01-23T02:20:50.069Z,1012.23
2018-01-23T02:21:50.004Z,1012.26
2018-01-23T02:22:49.938Z,1012.19
2018-01-23T02:23:49.872Z,1012.19
2018-01-23T02:24:49.809Z,1012.22
2018-01-23T02:25:49.741Z,1012.23
2018-01-23T02:26:49.677Z,1012.22
2018-01-23T02:27:49.615Z,1012.25
2018-01-23T02:28:49.545Z,1012.26
2018-01-23T02:29:49.480Z,1012.27
2018-01-23T02:30:49.414Z,1012.28
2018-01-23T02:31:49.350Z,1012.26
2018-01-23T02:32:49.284Z,1012.26
2018-01-23T02:33:49.217Z,1012.30
2018-01-23T02:34:49.152Z,1012.28
2018-01-23T02:35:49.089Z,1012.26
2018-01-23T02:36:49.023Z,1012.20
2018-01-23T02:37:48.956Z,1012.22
2018-01-23T02:38:48.897Z,1012.24
2018-01-23T02:39:48.826Z,1012.30
2018-01-23T02:40:48.761Z,1012.29
2018-01-23T02:41:48.695Z,1012.32
2018-01-23T02:42:48.629Z,1012.30
2018-01-23T02:43:48.563Z,1012.32
2018-01-23T02:44:48.498Z,1012.33
2018-01-23T02:45:48.433Z,1012.38
2018-01-23T02:46:48.366Z,1012.34
2018-01-23T02:47:48.309Z,1012.36
2018-01-23T02:48:48.238Z,1012.39
2018-01-23T02:49:48.171Z,1012.41
2018-01-23T02:50:48.105Z,1012.41
2018-01-23T02:51:48.039Z,1012.35
2018-01-23T02:52:47.976Z,1012.36
2018-01-23T02:53:47.908Z,1012.38
2018-01-23T02:54:47.844Z,1012.35
2018-01-23T02:55:47.783Z,1012.38
2018-01-23T02:56:47.714Z,1012.34
2018-01-23T02:57:47.650Z,1012.32
2018-01-23T02:58:47.581Z,1012.36
2018-01-23T02:59:47.517Z,1012.34
2018-01-23T03:00:47.451Z,1012.33
2018-01-23T03:01:47.386Z,1012.32
2018-01-23T03:02:47.319Z,1012.30
2018-01-23T03:03:47.257Z,1012.34
2018-01-23T03:04:47.188Z,1012.33
2018-01-23T03:05:47.123Z,1012.31
2018-01-23T03:06:47.057Z,1012.35
2018-01-23T03:07:46.992Z,1012.35
2018-01-23T03:08:46.929Z,1012.35
2018-01-23T03:09:46.861Z,1012.40
2018-01-23T03:10:46.796Z,1012.44
2018-01-23T03:11:46.731Z,1012.42
2018-01-23T03:12:46.665Z,1012.43
2018-01-23T03:13:46.598Z,1012.44
2018-01-23T03:14:46.533Z,1012.47
2018-01-23T03:15:46.467Z,1012.43
2018-01-23T03:16:46.403Z,1012.46
2018-01-23T03:17:46.336Z,1012.48
2018-01-23T03:18:46.271Z,1012.46
2018-01-23T03:19:46.206Z,1012.53
2018-01-23T03:20:46.141Z,1012.52
2018-01-23T03:21:46.074Z,1012.52
2018-01-23T03:22:46.011Z,1012.57
2018-01-23T03:23:45.944Z,1012.57
2018-01-23T03:24:45.878Z,1012.55
2018-01-23T03:25:45.813Z,1012.58
2018-01-23T03:26:45.747Z,1012.61
2018-01-23T03:27:45.683Z,1012.64
2018-01-23T03:28:45.617Z,1012.67
2018-01-23T03:29:45.550Z,1012.68
2018-01-23T03:30:45.485Z,1012.69
2018-01-23T03:31:45.419Z,1012.68
2018-01-23T03:32:45.354Z,1012.75
2018-01-23T03:33:45.309Z,1012.72
2018-01-23T03:34:45.223Z,1012.73
2018-01-23T03:35:45.158Z,1012.74
2018-01-23T03:36:45.092Z,1012.76
2018-01-23T03:37:45.026Z,1012.76
2018-01-23T03:38:44.962Z,1012.74
2018-01-23T03:39:44.896Z,1012.78
2018-01-23T03:40:44.830Z,1012.79
2018-01-23T03:41:44.764Z,1012.78
2018-01-23T03:42:44.699Z,1012.82
2018-01-23T03:43:44.634Z,1012.84
2018-01-23T03:44:44.569Z,1012.85
2018-01-23T03:45:44.502Z,1012.88
2018-01-23T03:46:44.438Z,1012.94
2018-01-23T03:47:44.372Z,1012.95
2018-01-23T03:48:44.308Z,1012.94
2018-01-23T03:49:44.240Z,1012.97
2018-01-23T03:50:44.175Z,1012.96
2018-01-23T03:51:44.113Z,1012.99
2018-01-23T03:52:44.045Z,1013.00
2018-01-23T03:53:43.979Z,1013.00
2018-01-23T03:54:43.915Z,1012.99
2018-01-23T03:55:43.848Z,1012.97
2018-01-23T03:56:43.782Z,1012.95
2018-01-23T03:57:43.716Z,1012.93
2018-01-23T03:58:43.651Z,1012.92
2018-01-23T03:59:43.587Z,1012.89
2018-01-23T04:00:43.520Z,1012.92
2018-01-23T04:01:43.459Z,1012.94
2018-01-23T04:02:43.387Z,1012.93
2018-01-23T04:03:43.325Z,1012.96
2018-01-23T04:04:43.258Z,1013.03
2018-01-23T04:05:43.193Z,1013.06
2018-01-23T04:06:43.127Z,1013.01
2018-01-23T04:07:43.062Z,1013.05
2018-01-23T04:08:43.010Z,1012.99
2018-01-23T04:09:42.930Z,1013.02
2018-01-23T04:10:42.865Z,1013.00
2018-01-23T04:11:42.801Z,1013.01
2018-01-23T04:12:42.734Z,1013.02
2018-01-23T04:13:42.668Z,1013.05
2018-01-23T04:14:42.604Z,1013.09
2018-01-23T04:15:42.539Z,1013.04
2018-01-23T04:16:42.476Z,1013.07
2018-01-23T04:17:42.405Z,1013.09
2018-01-23T04:18:42.341Z,1013.09
2018-01-23T04:19:42.276Z,1013.08
2018-01-23T04:20:42.210Z,1013.14
2018-01-23T04:21:42.145Z,1013.14
2018-01-23T04:22:42.079Z,1013.13
2018-01-23T04:23:42.015Z,1013.15
2018-01-23T04:24:41.948Z,1013.13
2018-01-23T04:25:41.882Z,1013.14
2018-01-23T04:26:41.817Z,1013.13
2018-01-23T04:27:41.753Z,1013.18
2018-01-23T04:28:41.686Z,1013.18
2018-01-23T04:29:41.619Z,1013.20
2018-01-23T04:30:41.554Z,1013.21
2018-01-23T04:31:41.489Z,1013.23
2018-01-23T04:32:41.424Z,1013.23
2018-01-23T04:33:41.358Z,1013.22
2018-01-23T04:34:41.294Z,1013.23
2018-01-23T04:35:41.226Z,1013.25
2018-01-23T04:36:41.162Z,1013.21
2018-01-23T04:37:41.096Z,1013.20
2018-01-23T04:38:41.030Z,1013.20
2018-01-23T04:39:40.966Z,1013.18
2018-01-23T04:40:40.900Z,1013.20
2018-01-23T04:41:40.834Z,1013.24
2018-01-23T04:42:40.769Z,1013.24
2018-01-23T04:43:40.704Z,1013.21
2018-01-23T04:44:40.640Z,1013.25
2018-01-23T04:45:40.572Z,1013.26
2018-01-23T04:46:40.507Z,1013.28
2018-01-23T04:47:40.441Z,1013.26
2018-01-23T04:48:40.376Z,1013.26
2018-01-23T04:49:40.309Z,1013.25
2018-01-23T04:50:40.245Z,1013.26
2018-01-23T04:51:40.180Z,1013.29
2018-01-23T04:52:40.115Z,1013.34
2018-01-23T04:53:40.048Z,1013.31
2018-01-23T04:54:39.983Z,1013.34
2018-01-23T04:55:39.919Z,1013.36
2018-01-23T04:56:39.852Z,1013.38
2018-01-23T04:57:39.787Z,1013.42
2018-01-23T04:58:39.721Z,1013.39
2018-01-23T04:59:39.655Z,1013.44
2018-01-23T05:00:39.590Z,1013.45
2018-01-23T05:01:39.523Z,1013.44
2018-01-23T05:02:39.459Z,1013.47
2018-01-23T05:03:39.393Z,1013.47
2018-01-23T05:04:39.328Z,1013.51
2018-01-23T05:05:39.262Z,1013.49
2018-01-23T05:06:39.197Z,1013.47
2018-01-23T05:07:39.134Z,1013.47
2018-01-23T05:08:39.066Z,1013.51
2018-01-23T05:09:39.003Z,1013.53
2018-01-23T05:10:38.934Z,1013.49
2018-01-23T05:11:38.869Z,1013.53
2018-01-23T05:13:12.012Z,1013.49
2018-01-23T05:13:38.738Z,1013.55
2018-01-23T05:14:38.674Z,1013.54
2018-01-23T05:15:38.607Z,1013.55
2018-01-23T05:16:38.542Z,1013.55
2018-01-23T05:17:38.476Z,1013.56
2018-01-23T05:18:38.410Z,1013.52
2018-01-23T05:19:38.345Z,1013.54
2018-01-23T05:20:38.279Z,1013.55
2018-01-23T05:21:38.214Z,1013.55
2018-01-23T05:22:38.148Z,1013.57
2018-01-23T05:23:38.083Z,1013.55
2018-01-23T05:24:38.018Z,1013.56
2018-01-23T05:25:37.951Z,1013.55
2018-01-23T05:26:37.889Z,1013.62
2018-01-23T05:27:37.827Z,1013.63
2018-01-23T05:28:37.759Z,1013.68
2018-01-23T05:29:37.690Z,1013.66
2018-01-23T05:30:37.623Z,1013.72
2018-01-23T05:31:37.560Z,1013.71
2018-01-23T05:32:37.493Z,1013.70
2018-01-23T05:33:37.427Z,1013.71
2018-01-23T05:34:37.362Z,1013.74
2018-01-23T05:35:37.296Z,1013.78
2018-01-23T05:36:37.231Z,1013.80
2018-01-23T05:37:37.165Z,1013.84
2018-01-23T05:38:37.099Z,1013.86
2018-01-23T05:39:37.035Z,1013.84
2018-01-23T05:40:36.969Z,1013.87
2018-01-23T05:41:36.903Z,1013.86
2018-01-23T05:42:36.872Z,1013.88
2018-01-23T05:43:36.772Z,1013.84
2018-01-23T05:44:36.708Z,1013.84
2018-01-23T05:45:36.640Z,1013.87
2018-01-23T05:46:36.575Z,1013.83
2018-01-23T05:47:36.511Z,1013.87
2018-01-23T05:48:36.445Z,1013.92
2018-01-23T05:49:36.378Z,1013.89
2018-01-23T05:50:36.313Z,1013.90
2018-01-23T05:51:36.247Z,1013.92
2018-01-23T05:52:36.183Z,1013.88
2018-01-23T05:53:36.117Z,1013.91
2018-01-23T05:54:36.050Z,1013.91
2018-01-23T05:55:35.989Z,1013.93
2018-01-23T05:56:35.920Z,1013.96
2018-01-23T05:57:35.854Z,1013.99
2018-01-23T05:58:35.790Z,1013.96
2018-01-23T05:59:35.723Z,1013.95
2018-01-23T06:00:35.658Z,1013.99
2018-01-23T06:01:35.593Z,1014.02
2018-01-23T06:02:35.526Z,1014.02
2018-01-23T06:03:35.461Z,1014.04
2018-01-23T06:04:35.396Z,1014.05
2018-01-23T06:05:35.330Z,1014.06
2018-01-23T06:06:35.265Z,1014.10
2018-01-23T06:07:35.200Z,1014.13
2018-01-23T06:08:35.149Z,1014.11
2018-01-23T06:09:35.075Z,1014.17
2018-01-23T06:10:35.024Z,1014.17
2018-01-23T06:11:34.936Z,1014.16
2018-01-23T06:12:34.872Z,1014.21
2018-01-23T06:13:34.806Z,1014.25
2018-01-23T06:14:34.746Z,1014.21
2018-01-23T06:15:34.675Z,1014.21
2018-01-23T06:16:34.610Z,1014.22
2018-01-23T06:17:34.545Z,1014.19
2018-01-23T06:18:34.483Z,1014.22
2018-01-23T06:19:34.414Z,1014.20
2018-01-23T06:20:34.348Z,1014.23
2018-01-23T06:21:34.283Z,1014.30
2018-01-23T06:22:34.217Z,1014.29
2018-01-23T06:23:34.160Z,1014.26
2018-01-23T06:24:34.086Z,1014.30
2018-01-23T06:25:34.021Z,1014.28
2018-01-23T06:26:33.977Z,1014.31
2018-01-23T06:27:33.889Z,1014.32
2018-01-23T06:28:33.830Z,1014.30
2018-01-23T06:29:33.759Z,1014.33
2018-01-23T06:30:33.693Z,1014.34
2018-01-23T06:31:33.628Z,1014.34
2018-01-23T06:32:33.565Z,1014.36
2018-01-23T06:33:33.497Z,1014.39
2018-01-23T06:34:33.431Z,1014.41
2018-01-23T06:35:33.364Z,1014.43
2018-01-23T06:36:33.302Z,1014.43
2018-01-23T06:37:33.233Z,1014.43
2018-01-23T06:38:33.169Z,1014.41
2018-01-23T06:39:33.103Z,1014.43
2018-01-23T06:40:33.039Z,1014.42
2018-01-23T06:41:32.971Z,1014.46
2018-01-23T06:42:32.907Z,1014.42
2018-01-23T06:43:32.841Z,1014.40
2018-01-23T06:44:32.776Z,1014.43
2018-01-23T06:45:32.709Z,1014.43
2018-01-23T06:46:32.645Z,1014.44
2018-01-23T06:47:32.578Z,1014.47
2018-01-23T06:48:32.514Z,1014.50
2018-01-23T06:49:32.447Z,1014.53
2018-01-23T06:50:32.381Z,1014.49
2018-01-23T06:51:32.316Z,1014.48
2018-01-23T06:52:32.251Z,1014.56
2018-01-23T06:53:32.185Z,1014.52
2018-01-23T06:54:32.119Z,1014.57
2018-01-23T06:55:32.055Z,1014.56
2018-01-23T06:56:31.989Z,1014.57
2018-01-23T06:57:31.923Z,1014.59
2018-01-23T06:58:31.856Z,1014.62
2018-01-23T06:59:31.791Z,1014.62
2018-01-23T07:00:31.726Z,1014.63
2018-01-23T07:01:31.659Z,1014.65
2018-01-23T07:02:31.594Z,1014.60
2018-01-23T07:03:31.532Z,1014.65
2018-01-23T07:04:31.463Z,1014.57
2018-01-23T07:05:31.397Z,1014.62
2018-01-23T07:06:31.332Z,1014.62
2018-01-23T07:07:31.267Z,1014.65
2018-01-23T07:08:31.201Z,1014.66
2018-01-23T07:09:31.139Z,1014.67
2018-01-23T07:10:31.070Z,1014.69
2018-01-23T07:11:31.005Z,1014.71
2018-01-23T07:12:30.941Z,1014.77
2018-01-23T07:13:30.873Z,1014.76
2018-01-23T07:14:30.809Z,1014.80
2018-01-23T07:15:30.743Z,1014.80
2018-01-23T07:16:30.678Z,1014.80
2018-01-23T07:17:30.611Z,1014.79
2018-01-23T07:18:30.546Z,1014.80
2018-01-23T07:19:30.482Z,1014.84
2018-01-23T07:20:30.417Z,1014.89
2018-01-23T07:21:30.349Z,1014.85
2018-01-23T07:22:30.285Z,1014.87
2018-01-23T07:23:30.219Z,1014.93
2018-01-23T07:24:30.154Z,1014.91
2018-01-23T07:25:30.088Z,1014.94
2018-01-23T07:26:30.022Z,1014.99
2018-01-23T07:27:29.958Z,1014.97
2018-01-23T07:28:29.892Z,1015.06
2018-01-23T07:29:29.825Z,1015.04
2018-01-23T07:30:29.760Z,1015.02
2018-01-23T07:31:29.696Z,1015.01
2018-01-23T07:32:29.628Z,1015.03
2018-01-23T07:33:29.569Z,1015.06
2018-01-23T07:34:29.499Z,1015.08
2018-01-23T07:35:29.433Z,1015.07
2018-01-23T07:36:29.368Z,1015.10
2018-01-23T07:37:29.301Z,1015.13
2018-01-23T07:38:29.236Z,1015.14
2018-01-23T07:39:29.170Z,1015.19
2018-01-23T07:40:29.106Z,1015.14
2018-01-23T07:41:29.041Z,1015.14
2018-01-23T07:42:28.975Z,1015.22
2018-01-23T07:43:28.911Z,1015.22
2018-01-23T07:44:28.854Z,1015.27
2018-01-23T07:45:28.780Z,1015.27
2018-01-23T07:46:28.713Z,1015.29
2018-01-23T07:47:28.648Z,1015.29
2018-01-23T07:48:28.582Z,1015.33
2018-01-23T07:49:28.517Z,1015.29
2018-01-23T07:50:28.452Z,1015.27
2018-01-23T07:51:28.386Z,1015.30
2018-01-23T07:52:28.376Z,1015.27
2018-01-23T07:53:28.254Z,1015.32
2018-01-23T07:54:28.189Z,1015.34
2018-01-23T07:55:28.124Z,1015.36
2018-01-23T07:56:28.058Z,1015.38
2018-01-23T07:57:27.992Z,1015.39
2018-01-23T07:58:27.928Z,1015.39
2018-01-23T07:59:27.863Z,1015.42
2018-01-23T08:00:27.798Z,1015.42
2018-01-23T08:01:27.731Z,1015.41
2018-01-23T08:02:27.665Z,1015.40
2018-01-23T08:03:27.600Z,1015.42
2018-01-23T08:04:27.536Z,1015.38
2018-01-23T08:05:27.470Z,1015.38
2018-01-23T08:06:27.646Z,1015.40
2018-01-23T08:07:27.339Z,1015.41
2018-01-23T08:08:27.275Z,1015.46
2018-01-23T08:09:27.208Z,1015.47
2018-01-23T08:10:27.142Z,1015.43
2018-01-23T08:11:27.079Z,1015.43
2018-01-23T08:12:27.012Z,1015.47
2018-01-23T08:13:26.946Z,1015.45
2018-01-23T08:14:26.881Z,1015.51
2018-01-23T08:15:26.817Z,1015.48
2018-01-23T08:16:26.757Z,1015.48
2018-01-23T08:17:26.744Z,1015.48
2018-01-23T08:18:26.619Z,1015.48
2018-01-23T08:19:26.555Z,1015.50
2018-01-23T08:20:26.491Z,1015.53
2018-01-23T08:21:26.425Z,1015.51
2018-01-23T08:22:26.360Z,1015.53
2018-01-23T08:23:26.293Z,1015.51
2018-01-23T08:24:26.230Z,1015.54
2018-01-23T08:25:26.163Z,1015.57
2018-01-23T08:26:26.098Z,1015.58
2018-01-23T08:27:26.034Z,1015.57
2018-01-23T08:28:25.968Z,1015.58
2018-01-23T08:29:25.903Z,1015.62
2018-01-23T08:30:25.838Z,1015.60
2018-01-23T08:31:25.772Z,1015.65
2018-01-23T08:32:25.709Z,1015.65
2018-01-23T08:33:25.642Z,1015.68
2018-01-23T08:34:25.578Z,1015.67
2018-01-23T08:35:25.511Z,1015.67
2018-01-23T08:36:25.446Z,1015.77
2018-01-23T08:37:25.381Z,1015.75
2018-01-23T08:38:25.316Z,1015.76
2018-01-23T08:39:25.250Z,1015.83
2018-01-23T08:40:25.185Z,1015.83
2018-01-23T08:41:25.119Z,1015.89
2018-01-23T08:42:25.055Z,1015.85
2018-01-23T08:43:24.991Z,1015.90
2018-01-23T08:44:24.927Z,1015.89
2018-01-23T08:45:24.860Z,1015.87
2018-01-23T08:46:24.795Z,1015.90
2018-01-23T08:47:24.730Z,1015.89
2018-01-23T08:48:24.665Z,1015.90
2018-01-23T08:49:24.599Z,1015.93
2018-01-23T08:50:24.573Z,1015.91
2018-01-23T08:51:24.471Z,1015.92
2018-01-23T08:52:24.406Z,1015.97
2018-01-23T08:53:24.344Z,1016.00
2018-01-23T08:54:24.275Z,1015.97
2018-01-23T08:55:24.211Z,1016.03
2018-01-23T08:56:24.147Z,1016.00
2018-01-23T08:57:24.081Z,1016.07
2018-01-23T08:58:24.018Z,1016.11
2018-01-23T08:59:23.953Z,1016.11
2018-01-23T09:00:23.888Z,1016.05
2018-01-23T09:01:23.822Z,1016.07
2018-01-23T09:02:23.760Z,1016.10
2018-01-23T09:03:23.694Z,1016.11
2018-01-23T09:04:23.630Z,1016.10
2018-01-23T09:05:23.565Z,1016.12
2018-01-23T09:06:23.499Z,1016.13
2018-01-23T09:07:23.437Z,1016.10
2018-01-23T09:08:23.371Z,1016.13
2018-01-23T09:09:23.313Z,1016.09
2018-01-23T09:10:23.240Z,1016.08
2018-01-23T09:11:23.176Z,1016.10
2018-01-23T09:12:23.113Z,1016.03
2018-01-23T09:13:23.046Z,1016.14
2018-01-23T09:14:22.982Z,1016.12
2018-01-23T09:15:22.919Z,1016.16
2018-01-23T09:16:22.854Z,1016.17
2018-01-23T09:17:22.788Z,1016.17
2018-01-23T09:18:22.723Z,1016.15
2018-01-23T09:19:22.661Z,1016.14
2018-01-23T09:20:22.595Z,1016.14
2018-01-23T09:21:22.530Z,1016.18
2018-01-23T09:22:22.465Z,1016.23
2018-01-23T09:23:22.402Z,1016.23
2018-01-23T09:24:22.338Z,1016.23
2018-01-23T09:25:22.271Z,1016.26
2018-01-23T09:26:22.209Z,1016.28
2018-01-23T09:27:22.143Z,1016.29
2018-01-23T09:28:22.079Z,1016.34
2018-01-23T09:29:22.059Z,1016.37
2018-01-23T09:30:21.950Z,1016.36
2018-01-23T09:31:21.886Z,1016.40
2018-01-23T09:32:21.847Z,1016.38
2018-01-23T09:33:21.757Z,1016.40
2018-01-23T09:34:21.693Z,1016.40
2018-01-23T09:35:21.629Z,1016.42
2018-01-23T09:36:21.566Z,1016.43
2018-01-23T09:37:21.500Z,1016.50
2018-01-23T09:38:21.439Z,1016.49
2018-01-23T09:39:21.371Z,1016.54
2018-01-23T09:40:21.309Z,1016.51
2018-01-23T09:41:21.243Z,1016.56
2018-01-23T09:42:21.232Z,1016.56
2018-01-23T09:43:21.115Z,1016.62
2018-01-23T09:44:21.051Z,1016.63
2018-01-23T09:45:20.987Z,1016.68
2018-01-23T09:46:20.924Z,1016.65
2018-01-23T09:47:20.859Z,1016.65
2018-01-23T09:48:20.795Z,1016.68
2018-01-23T09:49:20.732Z,1016.70
2018-01-23T09:50:20.671Z,1016.69
2018-01-23T09:51:20.604Z,1016.71
2018-01-23T09:52:20.539Z,1016.73
2018-01-23T09:53:20.475Z,1016.69
2018-01-23T09:54:20.451Z,1016.73
2018-01-23T09:55:20.347Z,1016.71
2018-01-23T09:56:20.282Z,1016.69
2018-01-23T09:57:20.217Z,1016.73
2018-01-23T09:58:20.160Z,1016.74
2018-01-23T09:59:20.090Z,1016.76
2018-01-23T10:00:20.027Z,1016.73
2018-01-23T10:01:19.964Z,1016.77
2018-01-23T10:02:19.898Z,1016.74
2018-01-23T10:03:19.835Z,1016.76
2018-01-23T10:04:19.771Z,1016.78
2018-01-23T10:05:19.705Z,1016.71
2018-01-23T10:06:19.642Z,1016.76
2018-01-23T10:07:19.579Z,1016.74
2018-01-23T10:08:19.514Z,1016.75
2018-01-23T10:09:19.451Z,1016.75
2018-01-23T10:10:19.386Z,1016.78
2018-01-23T10:11:19.323Z,1016.79
2018-01-23T10:12:19.260Z,1016.82
2018-01-23T10:13:19.195Z,1016.81
2018-01-23T10:14:19.131Z,1016.78
2018-01-23T10:15:19.068Z,1016.82
2018-01-23T10:16:19.004Z,1016.84
2018-01-23T10:17:18.941Z,1016.84
2018-01-23T10:18:18.876Z,1016.81
2018-01-23T10:19:18.811Z,1016.80
2018-01-23T10:20:18.749Z,1016.83
2018-01-23T10:21:18.683Z,1016.83
2018-01-23T10:22:18.621Z,1016.81
2018-01-23T10:23:18.556Z,1016.79
2018-01-23T10:24:18.493Z,1016.81
2018-01-23T10:25:18.428Z,1016.81
2018-01-23T10:26:18.364Z,1016.82
2018-01-23T10:27:18.300Z,1016.79
2018-01-23T10:28:18.237Z,1016.82
2018-01-23T10:29:18.171Z,1016.82
2018-01-23T10:30:18.108Z,1016.82
2018-01-23T10:31:18.045Z,1016.81
2018-01-23T10:32:17.981Z,1016.79
2018-01-23T10:33:17.916Z,1016.77
2018-01-23T10:34:17.851Z,1016.79
2018-01-23T10:35:17.841Z,1016.75
2018-01-23T10:36:17.876Z,1016.77
2018-01-23T10:37:17.661Z,1016.81
2018-01-23T10:38:17.597Z,1016.81
2018-01-23T10:39:17.534Z,1016.81
2018-01-23T10:40:17.470Z,1016.83
2018-01-23T10:41:17.406Z,1016.83
2018-01-23T10:42:17.341Z,1016.85
2018-01-23T10:43:17.277Z,1016.84
2018-01-23T10:44:17.214Z,1016.87
2018-01-23T10:45:17.148Z,1016.81
2018-01-23T10:46:17.085Z,1016.80
2018-01-23T10:47:17.022Z,1016.82
2018-01-23T10:48:16.958Z,1016.80
2018-01-23T10:49:16.893Z,1016.78
2018-01-23T10:50:16.828Z,1016.77
2018-01-23T10:51:16.765Z,1016.83
2018-01-23T10:52:16.703Z,1016.80
2018-01-23T10:53:16.637Z,1016.83
2018-01-23T10:54:16.573Z,1016.82
2018-01-23T10:55:16.510Z,1016.82
2018-01-23T10:56:16.446Z,1016.81
2018-01-23T10:57:16.382Z,1016.84
2018-01-23T10:58:16.317Z,1016.82
2018-01-23T10:59:16.253Z,1016.85
2018-01-23T11:00:16.190Z,1016.83
2018-01-23T11:01:16.124Z,1016.86
2018-01-23T11:02:16.062Z,1016.80
2018-01-23T11:03:15.998Z,1016.78
2018-01-23T11:04:15.940Z,1016.75
2018-01-23T11:05:15.870Z,1016.74
2018-01-23T11:06:15.806Z,1016.73
2018-01-23T11:07:15.743Z,1016.70
2018-01-23T11:08:15.679Z,1016.74
2018-01-23T11:09:15.615Z,1016.71
2018-01-23T11:10:15.552Z,1016.74
2018-01-23T11:11:15.488Z,1016.72
2018-01-23T11:12:15.426Z,1016.74
2018-01-23T11:13:15.373Z,1016.72
2018-01-23T11:14:15.297Z,1016.72
2018-01-23T11:15:15.233Z,1016.71
2018-01-23T11:16:15.170Z,1016.68
2018-01-23T11:17:15.106Z,1016.67
2018-01-23T11:18:15.048Z,1016.69
2018-01-23T11:19:14.980Z,1016.73
2018-01-23T11:20:14.919Z,1016.71
2018-01-23T11:21:14.852Z,1016.72
2018-01-23T11:22:14.789Z,1016.64
2018-01-23T11:23:14.728Z,1016.63
2018-01-23T11:24:14.662Z,1016.64
2018-01-23T11:25:14.598Z,1016.60
2018-01-23T11:26:14.534Z,1016.59
2018-01-23T11:27:14.471Z,1016.59
2018-01-23T11:28:14.415Z,1016.56
2018-01-23T11:29:14.344Z,1016.57
2018-01-23T11:30:14.281Z,1016.58
2018-01-23T11:31:14.217Z,1016.62
2018-01-23T11:32:14.171Z,1016.64
2018-01-23T11:33:14.092Z,1016.62
2018-01-23T11:34:14.028Z,1016.62
2018-01-23T11:35:13.964Z,1016.61
2018-01-23T11:36:13.901Z,1016.60
2018-01-23T11:37:13.838Z,1016.59
2018-01-23T11:38:13.773Z,1016.59
2018-01-23T11:39:13.739Z,1016.60
2018-01-23T11:40:13.649Z,1016.55
2018-01-23T11:41:13.584Z,1016.51
2018-01-23T11:42:13.521Z,1016.55
2018-01-23T11:43:13.458Z,1016.52
2018-01-23T11:44:13.394Z,1016.50
2018-01-23T11:45:13.330Z,1016.45
2018-01-23T11:46:13.267Z,1016.47
2018-01-23T11:47:13.204Z,1016.43
2018-01-23T11:48:13.142Z,1016.45
2018-01-23T11:49:13.079Z,1016.52
2018-01-23T11:50:13.014Z,1016.50
2018-01-23T11:51:12.954Z,1016.52
2018-01-23T11:52:12.892Z,1016.48
2018-01-23T11:53:12.828Z,1016.44
2018-01-23T11:54:12.761Z,1016.40
2018-01-23T11:55:12.698Z,1016.42
2018-01-23T11:56:12.635Z,1016.45
2018-01-23T11:57:12.572Z,1016.46
2018-01-23T11:58:12.512Z,1016.45
2018-01-23T11:59:12.446Z,1016.43
2018-01-23T12:00:12.383Z,1016.41
2018-01-23T12:01:12.320Z,1016.40
2018-01-23T12:02:12.256Z,1016.39
2018-01-23T12:03:12.193Z,1016.37
2018-01-23T12:04:12.137Z,1016.38
2018-01-23T12:05:12.076Z,1016.38